EW0962 Weather Reports


Display with metric or nautical units.
time (UTC)temp
F
wind
direction
speed
MPH
gust
MPH
rain 1hr
in
rain 24hr
in
rain mn
in
humidity
%
barometer
mb
20240530074507 56 158 0.0 2.0 0.00 0.00 0.00 82 1020.1
20240530073004 55 222 1.0 2.0 0.00 0.00 0.00 84 1020.0
20240530071608 56 77 0.0 2.0 0.00 0.00 0.00 83 1020.0
20240530070002 56 145 0.0 1.0 0.00 0.00 0.00 83 1020.3
20240530064603 56 223 0.0 2.0 0.00 0.00 0.00 82 1020.4
20240530063102 56 265 1.0 2.0 0.00 0.00 0.00 82 1020.5
20240530061603 57 160 0.0 2.0 0.00 0.00 0.00 83 1020.6
20240530060106 57 273 0.0 2.0 0.00 0.00 0.00 82 1020.6
20240530054559 57 291 1.0 2.0 0.00 0.00 0.00 82 1020.6
20240530053057 58 180 0.0 1.0 0.00 0.00 0.00 79 1020.6
20240530051559 59 278 0.0 4.0 0.00 0.00 0.00 78 1020.4
20240530050113 59 174 0.0 2.0 0.00 0.00 0.00 78 1020.4
20240530044553 59 326 0.0 2.0 0.00 0.00 0.00 78 1020.4
20240530043107 59 306 0.0 2.0 0.00 0.00 0.00 76 1020.3
20240530041554 59 307 1.0 2.0 0.00 0.00 0.00 76 1020.3
20240530040049 60 297 0.0 4.0 0.00 0.00 0.00 74 1020.2
20240530034548 61 331 1.0 4.0 0.00 0.00 0.00 72 1020.2
20240530033045 62 355 1.0 2.0 0.00 0.00 0.00 70 1020.1
20240530031555 62 300 2.0 4.0 0.00 0.00 0.00 68 1020.1
20240530030043 62 282 1.0 5.0 0.00 0.00 0.00 68 1019.9
20240530024542 62 299 3.0 8.0 0.00 0.00 0.00 65 1019.9
20240530023046 63 292 1.0 6.0 0.00 0.00 0.00 63 1019.7
20240530021543 64 294 1.0 4.0 0.00 0.00 0.00 61 1019.3
20240530020041 64 279 2.0 6.0 0.00 0.00 0.00 58 1019.2
20240530014544 65 290 1.0 3.0 0.00 0.00 0.00 58 1019.0
20240530013045 65 302 1.0 6.0 0.00 0.00 0.00 58 1019.0
20240530011539 66 268 1.0 5.0 0.00 0.00 0.00 57 1018.8
20240530010036 66 331 0.0 5.0 0.00 0.00 0.00 57 1018.7
20240530004533 67 265 1.0 5.0 0.00 0.00 0.00 55 1018.5
20240530003032 67 307 2.0 5.0 0.00 0.00 0.00 55 1018.5
20240530001531 68 297 1.0 7.0 0.00 0.00 0.00 56 1018.3
20240530000030 67 355 2.0 9.0 0.00 0.00 0.00 56 1018.2
20240529234530 68 338 4.0 8.0 0.00 0.00 0.00 56 1018.2
20240529233028 69 355 3.0 7.0 0.00 0.00 0.00 57 1018.1
20240529231535 68 281 1.0 6.0 0.00 0.00 0.00 57 1018.1
20240529230027 68 306 4.0 8.0 0.00 0.00 0.00 53 1018.1
20240529224542 69 338 6.0 10.0 0.00 0.00 0.00 52 1018.0
20240529223023 70 340 3.0 6.0 0.00 0.00 0.00 52 1017.9
20240529221530 69 282 4.0 8.0 0.00 0.00 0.00 54 1017.9
20240529220028 69 307 3.0 8.0 0.00 0.00 0.00 54 1018.0
20240529214522 70 10 5.0 9.0 0.00 0.00 0.00 53 1018.0
20240529213023 68 306 6.0 14.0 0.00 0.00 0.00 55 1018.2
20240529211527 68 307 4.0 13.0 0.00 0.00 0.00 58 1018.2
20240529210021 70 304 1.0 7.0 0.00 0.00 0.00 60 1018.3
20240529204519 67 313 2.0 8.0 0.00 0.00 0.00 61 1018.4
20240529203017 66 323 5.0 11.0 0.00 0.00 0.00 59 1018.6
20240529201515 66 5 1.0 9.0 0.00 0.00 0.00 68 1018.5
20240529200017 65 310 5.0 10.0 0.00 0.00 0.00 65 1018.7
20240529194512 66 339 5.0 14.0 0.00 0.00 0.00 63 1018.7
20240529193013 68 286 6.0 11.0 0.00 0.00 0.00 59 1018.7
20240529191512 66 310 5.0 13.0 0.00 0.00 0.00 61 1018.6
20240529190013 66 306 4.0 12.0 0.00 0.00 0.00 63 1018.7
20240529184511 66 5 4.0 10.0 0.00 0.00 0.00 64 1018.8
20240529183014 64 332 7.0 14.0 0.00 0.00 0.00 64 1018.7
20240529181507 63 10 4.0 10.0 0.00 0.00 0.00 69 1018.7
20240529180024 61 333 3.0 12.0 0.00 0.00 0.00 75 1018.7
20240529174507 61 5 4.0 10.0 0.00 0.00 0.00 73 1018.7
20240529173005 63 328 6.0 11.0 0.00 0.00 0.00 71 1018.5
20240529171503 63 301 4.0 8.0 0.00 0.00 0.00 72 1018.4
20240529170002 62 360 4.0 11.0 0.00 0.00 0.00 73 1018.2
20240529164612 61 9 3.0 9.0 0.00 0.00 0.00 74 1018.4
20240529163104 61 9 6.0 11.0 0.00 0.00 0.00 75 1018.3
20240529161603 60 5 3.0 12.0 0.00 0.00 0.00 78 1018.3
20240529160108 59 303 5.0 12.0 0.00 0.00 0.00 79 1018.3
20240529154611 59 315 5.0 9.0 0.00 0.00 0.00 80 1018.0
20240529153101 58 306 5.0 12.0 0.00 0.00 0.00 81 1017.8
20240529151601 58 318 4.0 10.0 0.00 0.00 0.00 81 1017.8
20240529150110 58 310 3.0 10.0 0.00 0.00 0.00 82 1017.8
20240529144605 58 269 3.0 9.0 0.00 0.00 0.00 84 1017.8
20240529143103 56 313 5.0 9.0 0.00 0.00 0.00 85 1017.6
20240529141604 56 309 3.0 11.0 0.00 0.00 0.00 86 1017.7
20240529140128 55 290 3.0 6.0 0.00 0.00 0.00 87 1017.5
20240529134559 54 327 2.0 8.0 0.00 0.00 0.00 89 1017.4
20240529133057 53 312 2.0 11.0 0.00 0.00 0.00 91 1017.4
20240529131603 54 303 4.0 12.0 0.00 0.00 0.00 88 1017.5
20240529130102 54 342 1.0 6.0 0.00 0.00 0.00 90 1017.1
20240529124540 53 346 2.0 12.0 0.00 0.00 0.00 90 1016.9
20240529123039 53 323 4.0 9.0 0.00 0.00 0.00 89 1016.8
20240529121536 53 301 4.0 10.0 0.00 0.00 0.00 90 1016.5
20240529120036 54 286 3.0 7.0 0.00 0.00 0.00 90 1016.3
20240529114533 54 291 1.0 4.0 0.00 0.00 0.00 91 1015.9
20240529113036 53 340 0.0 5.0 0.00 0.00 0.00 90 1015.6
20240529111538 52 105 0.0 2.0 0.00 0.00 0.00 90 1015.4
20240529110030 52 155 0.0 2.0 0.00 0.00 0.00 91 1015.1
20240529104557 52 194 1.0 2.0 0.00 0.00 0.00 90 1014.8
20240529103031 52 215 0.0 1.0 0.00 0.00 0.00 89 1014.5
20240529101531 53 157 0.0 1.0 0.00 0.00 0.00 89 1014.2
20240529100029 52 230 0.0 2.0 0.00 0.00 0.00 89 1014.3
20240529094552 52 200 0.0 2.0 0.00 0.00 0.00 89 1014.2
20240529093027 53 161 0.0 2.0 0.00 0.00 0.00 88 1014.1
20240529091524 54 158 0.0 2.0 0.00 0.00 0.00 89 1013.8
20240529090024 53 236 0.0 2.0 0.00 0.00 0.00 88 1013.7
20240529084527 54 188 0.0 2.0 0.00 0.00 0.00 88 1013.7
20240529083022 54 272 1.0 5.0 0.00 0.00 0.00 88 1013.7
20240529081525 54 292 1.0 4.0 0.00 0.00 0.00 90 1013.8
20240529080018 54 292 2.0 6.0 0.00 0.00 0.00 89 1013.8